createdAt,value
2019-02-24T00:01:40.278Z,68.00
2019-02-24T00:04:32.365Z,66.50
2019-02-24T00:07:00.304Z,60.00
2019-02-24T00:09:33.029Z,52.50
2019-02-24T00:12:15.798Z,58.50
2019-02-24T00:14:44.977Z,59.50
2019-02-24T00:17:14.361Z,48.50
2019-02-24T00:20:02.783Z,60.00
2019-02-24T00:22:55.397Z,55.00
2019-02-24T00:25:27.901Z,63.00
2019-02-24T00:28:17.849Z,53.00
2019-02-24T00:30:49.132Z,51.50
2019-02-24T00:33:20.935Z,76.50
2019-02-24T00:36:03.367Z,53.00
2019-02-24T00:38:34.510Z,59.50
2019-02-24T00:41:03.807Z,47.50
2019-02-24T00:43:32.865Z,66.00
2019-02-24T00:46:01.976Z,62.50
2019-02-24T00:48:31.027Z,52.00
2019-02-24T00:51:00.076Z,55.50
2019-02-24T00:53:29.139Z,58.50
2019-02-24T00:55:59.670Z,56.00
2019-02-24T00:58:29.143Z,59.00
2019-02-24T01:00:58.222Z,64.00
2019-02-24T01:03:27.814Z,59.00
2019-02-24T01:05:56.848Z,57.00
2019-02-24T01:08:27.765Z,60.50
2019-02-24T01:10:56.791Z,65.50
2019-02-24T01:13:25.831Z,62.50
2019-02-24T01:15:58.197Z,58.00
2019-02-24T01:18:27.195Z,58.00
2019-02-24T01:20:56.230Z,54.50
2019-02-24T01:23:25.469Z,59.00
2019-02-24T01:25:55.809Z,55.50
2019-02-24T01:28:25.597Z,64.50
2019-02-24T01:30:55.956Z,68.00
2019-02-24T01:33:25.049Z,59.00
2019-02-24T01:35:54.128Z,58.00
2019-02-24T01:38:23.143Z,52.00
2019-02-24T01:40:52.335Z,61.50
2019-02-24T01:43:21.354Z,63.00
2019-02-24T01:45:50.394Z,49.00
2019-02-24T01:48:21.122Z,52.50
2019-02-24T01:50:50.265Z,53.50
2019-02-24T01:53:19.350Z,59.00
2019-02-24T01:55:48.418Z,56.50
2019-02-24T01:58:17.441Z,54.50
2019-02-24T02:00:46.463Z,64.50
2019-02-24T02:03:15.514Z,60.50
2019-02-24T02:05:44.614Z,56.50
2019-02-24T02:08:13.638Z,56.00
2019-02-24T02:10:42.628Z,56.00
2019-02-24T02:13:11.943Z,58.50
2019-02-24T02:15:41.037Z,67.00
2019-02-24T02:18:10.053Z,74.50
2019-02-24T02:20:39.144Z,55.50
2019-02-24T02:23:08.228Z,55.00
2019-02-24T02:25:37.255Z,60.00
2019-02-24T02:28:06.350Z,55.50
2019-02-24T02:30:35.405Z,58.50
2019-02-24T02:33:05.400Z,58.50
2019-02-24T02:35:34.622Z,65.50
2019-02-24T02:38:03.694Z,57.00
2019-02-24T02:40:34.097Z,55.00
2019-02-24T02:43:03.105Z,64.00
2019-02-24T02:45:33.570Z,56.00
2019-02-24T02:48:02.603Z,58.00
2019-02-24T02:50:31.739Z,49.00
2019-02-24T02:53:02.015Z,62.50
2019-02-24T02:55:31.383Z,67.50
2019-02-24T02:58:00.572Z,62.00
2019-02-24T03:00:34.471Z,64.50
2019-02-24T03:03:05.862Z,59.00
2019-02-24T03:05:34.985Z,55.00
2019-02-24T03:08:11.598Z,63.50
2019-02-24T03:10:40.747Z,58.00
2019-02-24T03:13:09.847Z,61.50
2019-02-24T03:15:38.930Z,62.00
2019-02-24T03:18:09.403Z,59.50
2019-02-24T03:20:38.492Z,62.50
2019-02-24T03:23:07.584Z,64.50
2019-02-24T03:25:36.720Z,63.00
2019-02-24T03:28:05.727Z,61.00
2019-02-24T03:30:34.787Z,57.50
2019-02-24T03:33:03.990Z,63.00
2019-02-24T03:35:33.091Z,53.00
2019-02-24T03:38:02.187Z,59.00
2019-02-24T03:40:31.392Z,56.00
2019-02-24T03:43:00.445Z,68.00
2019-02-24T03:45:30.422Z,52.00
2019-02-24T03:47:59.536Z,56.50
2019-02-24T03:50:28.573Z,54.50
2019-02-24T03:52:57.569Z,55.50
2019-02-24T03:55:26.748Z,55.50
2019-02-24T03:57:55.907Z,59.00
2019-02-24T04:00:27.770Z,64.50
2019-02-24T04:02:56.936Z,62.00
2019-02-24T04:05:25.947Z,65.50
2019-02-24T04:07:55.065Z,62.50
2019-02-24T04:10:24.175Z,70.50
2019-02-24T04:12:53.271Z,58.00
2019-02-24T04:15:22.285Z,59.50
2019-02-24T04:17:53.832Z,58.00
2019-02-24T04:20:22.876Z,57.50
2019-02-24T04:22:51.885Z,57.00
2019-02-24T04:25:20.898Z,60.50
2019-02-24T04:27:49.969Z,59.00
2019-02-24T04:30:22.318Z,63.00
2019-02-24T04:32:53.292Z,68.00
2019-02-24T04:35:22.318Z,59.50
2019-02-24T04:37:51.428Z,59.50
2019-02-24T04:40:21.584Z,61.00
2019-02-24T04:42:50.612Z,65.00
2019-02-24T04:45:19.645Z,63.50
2019-02-24T04:47:48.716Z,54.50
2019-02-24T04:50:17.733Z,55.50
2019-02-24T04:52:46.745Z,50.00
2019-02-24T04:55:16.011Z,67.50
2019-02-24T04:57:45.069Z,60.50
2019-02-24T05:00:15.638Z,58.00
2019-02-24T05:02:44.715Z,55.00
2019-02-24T05:05:13.726Z,50.00
2019-02-24T05:07:42.813Z,60.00
2019-02-24T05:10:11.884Z,65.50
2019-02-24T05:12:40.954Z,56.50
2019-02-24T05:15:10.059Z,56.50
2019-02-24T05:17:39.100Z,59.50
2019-02-24T05:20:08.395Z,57.50
2019-02-24T05:22:37.565Z,67.00
2019-02-24T05:25:06.863Z,61.00
2019-02-24T05:27:36.154Z,58.00
2019-02-24T05:30:12.676Z,55.50
2019-02-24T05:32:42.151Z,52.00
2019-02-24T05:35:11.480Z,57.00
2019-02-24T05:37:40.702Z,59.00
2019-02-24T05:40:09.874Z,55.50
2019-02-24T05:42:38.999Z,57.50
2019-02-24T05:45:08.175Z,52.50
2019-02-24T05:47:37.238Z,64.00
2019-02-24T05:50:07.661Z,54.50
2019-02-24T05:52:37.495Z,63.50
2019-02-24T05:55:06.890Z,57.00
2019-02-24T05:57:35.941Z,56.00
2019-02-24T06:00:05.478Z,56.50
2019-02-24T06:02:34.521Z,59.00
2019-02-24T06:05:03.752Z,55.00
2019-02-24T06:07:33.305Z,59.50
2019-02-24T06:10:05.607Z,56.00
2019-02-24T06:12:34.981Z,64.00
2019-02-24T06:15:21.623Z,58.50
2019-02-24T06:17:51.736Z,69.00
2019-02-24T06:20:20.633Z,56.00
2019-02-24T06:22:51.204Z,61.00
2019-02-24T06:25:21.100Z,69.00
2019-02-24T06:27:50.186Z,49.50
2019-02-24T06:30:19.249Z,67.00
2019-02-24T06:32:48.281Z,59.50
2019-02-24T06:35:17.376Z,55.50
2019-02-24T06:37:48.941Z,52.00
2019-02-24T06:40:18.057Z,57.50
2019-02-24T06:43:08.892Z,48.00
2019-02-24T06:46:21.051Z,64.50
2019-02-24T06:49:02.485Z,55.00
2019-02-24T06:51:36.056Z,69.00
2019-02-24T06:54:27.516Z,49.50
2019-02-24T06:57:00.586Z,51.50
2019-02-24T07:00:15.300Z,51.50
2019-02-24T07:03:38.071Z,43.50
2019-02-24T07:06:32.490Z,52.50
2019-02-24T07:09:12.221Z,57.00
2019-02-24T07:11:46.638Z,44.00
2019-02-24T07:14:17.944Z,56.50
2019-02-24T07:16:47.233Z,53.00
2019-02-24T07:19:16.237Z,45.50
2019-02-24T07:21:46.627Z,57.50
2019-02-24T07:24:15.801Z,49.00
2019-02-24T07:26:45.163Z,62.00
2019-02-24T07:29:17.141Z,54.00
2019-02-24T07:31:46.316Z,51.00
2019-02-24T07:34:16.704Z,51.50
2019-02-24T07:36:45.734Z,47.00
2019-02-24T07:39:14.777Z,55.00
2019-02-24T07:41:47.383Z,57.00
2019-02-24T07:44:16.436Z,52.00
2019-02-24T07:46:45.491Z,48.00
2019-02-24T07:49:16.806Z,56.50
2019-02-24T07:51:45.919Z,56.50
2019-02-24T07:54:16.493Z,56.50
2019-02-24T07:56:45.591Z,52.00
2019-02-24T07:59:14.699Z,63.00
2019-02-24T08:01:51.191Z,55.00
2019-02-24T08:04:20.266Z,51.00
2019-02-24T08:06:49.305Z,53.00
2019-02-24T08:09:18.312Z,54.50
2019-02-24T08:11:50.222Z,51.50
2019-02-24T08:14:19.223Z,51.00
2019-02-24T08:16:48.268Z,48.00
2019-02-24T08:19:17.436Z,55.00
2019-02-24T08:21:47.540Z,59.50
2019-02-24T08:24:19.377Z,54.50
2019-02-24T08:26:51.122Z,56.00
2019-02-24T08:29:20.192Z,49.50
2019-02-24T08:31:49.233Z,56.00
2019-02-24T08:34:18.251Z,56.50
2019-02-24T08:36:48.695Z,65.50
2019-02-24T08:39:17.963Z,57.50
2019-02-24T08:41:49.170Z,51.50
2019-02-24T08:44:18.482Z,59.00
2019-02-24T08:46:47.611Z,56.50
2019-02-24T08:49:16.712Z,67.50
2019-02-24T08:51:46.018Z,61.00
2019-02-24T08:54:15.164Z,52.50
2019-02-24T08:56:44.381Z,56.50
2019-02-24T08:59:16.626Z,58.00
2019-02-24T09:01:45.652Z,54.50
2019-02-24T09:04:14.880Z,63.50
2019-02-24T09:06:44.033Z,59.00
2019-02-24T09:09:15.459Z,54.50
2019-02-24T09:11:46.016Z,59.00
2019-02-24T09:14:15.027Z,60.00
2019-02-24T09:16:48.588Z,53.50
2019-02-24T09:19:23.010Z,58.00
2019-02-24T09:21:52.060Z,61.00
2019-02-24T09:24:22.319Z,53.50
2019-02-24T09:26:51.488Z,53.00
2019-02-24T09:29:20.686Z,56.00
2019-02-24T09:31:49.679Z,57.50
2019-02-24T09:34:18.707Z,68.00
2019-02-24T09:36:47.838Z,60.25
2019-02-24T09:39:16.907Z,56.75
2019-02-24T09:41:46.066Z,58.00
2019-02-24T09:44:15.258Z,51.00
2019-02-24T09:46:44.268Z,60.75
2019-02-24T09:49:13.422Z,56.25
2019-02-24T09:51:42.547Z,61.00
2019-02-24T09:54:11.564Z,55.00
2019-02-24T09:56:40.743Z,51.25
2019-02-24T09:59:09.767Z,54.00
2019-02-24T10:01:38.853Z,47.50
2019-02-24T10:04:09.737Z,57.00
2019-02-24T10:06:43.599Z,51.75
2019-02-24T10:09:19.241Z,57.50
2019-02-24T10:11:48.532Z,52.75
2019-02-24T10:14:17.856Z,62.00
2019-02-24T10:16:47.368Z,52.00
2019-02-24T10:19:38.207Z,54.50
2019-02-24T10:22:09.390Z,53.25
2019-02-24T10:24:38.761Z,57.50
2019-02-24T10:27:08.990Z,48.25
2019-02-24T10:29:38.196Z,57.00
2019-02-24T10:32:08.975Z,61.75
2019-02-24T10:34:38.027Z,60.00
2019-02-24T10:37:16.555Z,51.75
2019-02-24T10:39:45.687Z,51.50
2019-02-24T10:42:17.715Z,59.00
2019-02-24T10:44:48.931Z,56.75
2019-02-24T10:47:18.093Z,52.00
2019-02-24T10:49:47.144Z,47.50
2019-02-24T10:52:16.228Z,53.25
2019-02-24T10:54:52.734Z,65.00
2019-02-24T10:57:21.831Z,61.75
2019-02-24T10:59:50.859Z,62.25
2019-02-24T11:02:21.123Z,59.00
2019-02-24T11:04:50.133Z,67.25
2019-02-24T11:07:19.380Z,50.00
2019-02-24T11:09:48.443Z,59.25
2019-02-24T11:12:17.451Z,64.00
2019-02-24T11:14:46.560Z,47.50
2019-02-24T11:17:15.665Z,58.25
2019-02-24T11:19:44.694Z,53.00
2019-02-24T11:22:13.737Z,57.25
2019-02-24T11:24:42.766Z,63.00
2019-02-24T11:27:14.236Z,55.75
2019-02-24T11:29:43.332Z,52.75
2019-02-24T11:32:12.451Z,55.50
2019-02-24T11:34:41.596Z,57.00
2019-02-24T11:37:10.708Z,41.75
2019-02-24T11:39:42.847Z,54.00
2019-02-24T11:42:11.965Z,45.00
2019-02-24T11:44:40.985Z,51.75
2019-02-24T11:47:09.982Z,49.00
2019-02-24T11:49:39.041Z,46.25
2019-02-24T11:52:08.161Z,47.00
2019-02-24T11:54:37.189Z,49.00
2019-02-24T11:57:06.340Z,51.25
2019-02-24T11:59:35.358Z,47.00
2019-02-24T12:02:04.448Z,54.00
2019-02-24T12:04:33.468Z,50.75
2019-02-24T12:07:02.642Z,54.25
2019-02-24T12:09:31.760Z,56.25
2019-02-24T12:12:00.816Z,50.50
2019-02-24T12:14:29.899Z,47.75
2019-02-24T12:16:58.924Z,46.75
2019-02-24T12:19:27.939Z,42.75
2019-02-24T12:21:56.970Z,47.25
2019-02-24T12:24:25.994Z,44.50
2019-02-24T12:26:55.215Z,44.75
2019-02-24T12:29:24.277Z,44.50
2019-02-24T12:31:56.819Z,52.25
2019-02-24T12:34:25.746Z,48.25
2019-02-24T12:36:57.295Z,46.75
2019-02-24T12:39:26.318Z,46.25
2019-02-24T12:41:55.438Z,52.25
2019-02-24T12:44:24.529Z,47.50
2019-02-24T12:46:53.598Z,36.50
2019-02-24T12:49:22.634Z,38.25
2019-02-24T12:51:52.603Z,42.25
2019-02-24T12:54:25.724Z,47.25
2019-02-24T12:56:54.813Z,47.25
2019-02-24T12:59:23.894Z,39.50
2019-02-24T13:02:05.769Z,45.75
2019-02-24T13:04:33.229Z,47.50
2019-02-24T13:07:06.643Z,41.50
2019-02-24T13:09:36.743Z,44.25
2019-02-24T13:12:05.908Z,51.50
2019-02-24T13:14:34.934Z,47.75
2019-02-24T13:17:03.941Z,43.75
2019-02-24T13:19:34.517Z,49.25
2019-02-24T13:22:03.774Z,37.00
2019-02-24T13:24:33.830Z,42.50
2019-02-24T13:27:05.669Z,38.25
2019-02-24T13:29:34.967Z,41.50
2019-02-24T13:32:04.077Z,45.00
2019-02-24T13:34:33.437Z,45.25
2019-02-24T13:37:03.538Z,43.75
2019-02-24T13:39:32.599Z,41.25
2019-02-24T13:42:01.665Z,44.25
2019-02-24T13:44:32.416Z,39.75
2019-02-24T13:47:03.119Z,44.25
2019-02-24T13:49:32.127Z,44.00
2019-02-24T13:52:01.135Z,48.00
2019-02-24T13:54:30.215Z,44.50
2019-02-24T13:57:01.646Z,45.25
2019-02-24T13:59:30.763Z,46.25
2019-02-24T14:02:01.914Z,40.50
2019-02-24T14:04:30.648Z,35.25
2019-02-24T14:06:59.676Z,48.25
2019-02-24T14:09:30.871Z,38.25
2019-02-24T14:11:59.933Z,41.00
2019-02-24T14:14:29.030Z,48.75
2019-02-24T14:16:58.066Z,41.00
2019-02-24T14:19:27.104Z,40.00
2019-02-24T14:21:56.082Z,43.75
2019-02-24T14:24:25.231Z,46.00
2019-02-24T14:26:55.493Z,39.50
2019-02-24T14:29:24.613Z,39.00
2019-02-24T14:31:53.659Z,40.25
2019-02-24T14:34:24.758Z,40.25
2019-02-24T14:36:53.886Z,38.25
2019-02-24T14:39:22.899Z,41.50
2019-02-24T14:41:53.263Z,46.75
2019-02-24T14:44:22.361Z,47.50
2019-02-24T14:46:51.380Z,38.75
2019-02-24T14:49:20.415Z,42.75
2019-02-24T14:51:49.489Z,47.00
2019-02-24T14:54:18.487Z,38.25
2019-02-24T14:56:47.515Z,40.00
2019-02-24T14:59:16.558Z,37.00
2019-02-24T15:01:49.992Z,34.75
2019-02-24T15:04:16.362Z,37.25
2019-02-24T15:06:45.446Z,44.00
2019-02-24T15:09:14.479Z,43.25
2019-02-24T15:11:43.734Z,50.75
2019-02-24T15:14:12.851Z,40.00
2019-02-24T15:16:44.242Z,41.25
2019-02-24T15:19:13.352Z,49.75
2019-02-24T15:21:43.352Z,47.00
2019-02-24T15:24:14.748Z,41.00
2019-02-24T15:26:44.020Z,40.50
2019-02-24T15:29:12.992Z,44.75
2019-02-24T15:31:42.049Z,36.25
2019-02-24T15:34:11.070Z,44.00
2019-02-24T15:36:40.102Z,46.25
2019-02-24T15:39:09.181Z,41.50
2019-02-24T15:41:38.350Z,35.50
2019-02-24T15:44:10.129Z,42.00
2019-02-24T15:46:39.641Z,43.75
2019-02-24T15:49:08.776Z,41.50
2019-02-24T15:51:37.928Z,44.50
2019-02-24T15:54:07.033Z,36.75
2019-02-24T15:56:38.262Z,41.00
2019-02-24T15:59:07.435Z,37.75
2019-02-24T16:01:36.462Z,34.75
2019-02-24T16:04:05.581Z,35.50
2019-02-24T16:06:37.168Z,39.50
2019-02-24T16:09:06.281Z,41.25
2019-02-24T16:11:35.426Z,39.75
2019-02-24T16:14:04.511Z,38.75
2019-02-24T16:16:33.682Z,38.75
2019-02-24T16:19:02.725Z,39.00
2019-02-24T16:21:31.763Z,38.25
2019-02-24T16:24:01.886Z,42.50
2019-02-24T16:26:30.965Z,41.25
2019-02-24T16:29:00.017Z,41.00
2019-02-24T16:31:29.104Z,43.25
2019-02-24T16:33:58.169Z,41.50
2019-02-24T16:36:27.175Z,44.25
2019-02-24T16:38:56.499Z,179.75
2019-02-24T16:41:29.897Z,62.50
2019-02-24T16:43:56.530Z,108.25
2019-02-24T16:46:25.822Z,40.50
2019-02-24T16:48:54.924Z,47.75
2019-02-24T16:51:23.960Z,45.00
2019-02-24T16:53:53.049Z,56.75
2019-02-24T16:56:22.068Z,48.00
2019-02-24T16:58:51.270Z,47.75
2019-02-24T17:01:20.312Z,38.00
2019-02-24T17:03:49.377Z,58.75
2019-02-24T17:06:18.538Z,55.25
2019-02-24T17:08:52.272Z,53.75
2019-02-24T17:11:18.293Z,66.25
2019-02-24T17:13:47.384Z,62.00
2019-02-24T17:16:16.440Z,50.00
2019-02-24T17:18:46.493Z,45.25
2019-02-24T17:21:15.533Z,43.50
2019-02-24T17:23:49.906Z,43.25
2019-02-24T17:26:15.349Z,43.25
2019-02-24T17:28:44.371Z,44.25
2019-02-24T17:31:13.570Z,51.25
2019-02-24T17:33:44.043Z,40.75
2019-02-24T17:36:13.144Z,45.75
2019-02-24T17:38:42.222Z,38.00
2019-02-24T17:41:13.886Z,44.00
2019-02-24T17:43:44.066Z,47.75
2019-02-24T17:46:13.186Z,62.50
2019-02-24T17:48:43.002Z,49.25
2019-02-24T17:51:20.624Z,53.75
2019-02-24T17:53:42.914Z,59.25
2019-02-24T17:56:12.075Z,70.50
2019-02-24T17:58:41.199Z,76.25
2019-02-24T18:01:10.242Z,66.50
2019-02-24T18:03:39.910Z,68.50
2019-02-24T18:06:09.065Z,66.50
2019-02-24T18:08:38.079Z,58.50
2019-02-24T18:11:07.198Z,54.00
2019-02-24T18:13:36.240Z,59.75
2019-02-24T18:16:05.360Z,52.75
2019-02-24T18:18:34.371Z,54.50
2019-02-24T18:21:03.551Z,48.75
2019-02-24T18:23:32.626Z,40.25
2019-02-24T18:26:01.722Z,47.50
2019-02-24T18:28:30.931Z,49.75
2019-02-24T18:31:00.447Z,50.00
2019-02-24T18:33:29.426Z,52.00
2019-02-24T18:35:58.507Z,43.25
2019-02-24T18:38:28.078Z,48.00
2019-02-24T18:40:57.218Z,55.75
2019-02-24T18:43:26.252Z,48.00
2019-02-24T18:45:55.262Z,56.75
2019-02-24T18:48:24.293Z,59.50
2019-02-24T18:50:53.635Z,61.25
2019-02-24T18:53:22.843Z,59.75
2019-02-24T18:55:51.865Z,57.25
2019-02-24T18:58:21.215Z,52.50
2019-02-24T19:00:50.251Z,58.50
2019-02-24T19:03:19.296Z,57.75
2019-02-24T19:05:48.362Z,67.00
2019-02-24T19:08:17.424Z,65.50
2019-02-24T19:10:46.420Z,64.75
2019-02-24T19:13:15.440Z,73.75
2019-02-24T19:15:44.572Z,60.25
2019-02-24T19:18:13.757Z,72.75
2019-02-24T19:20:42.817Z,57.25
2019-02-24T19:23:11.964Z,70.00
2019-02-24T19:25:41.181Z,59.00
2019-02-24T19:28:10.242Z,62.25
2019-02-24T19:30:39.409Z,67.75
2019-02-24T19:33:08.439Z,64.50
2019-02-24T19:35:37.540Z,61.75
2019-02-24T19:38:06.743Z,63.25
2019-02-24T19:40:37.761Z,54.50
2019-02-24T19:43:10.111Z,64.00
2019-02-24T19:45:41.194Z,64.50
2019-02-24T19:48:13.508Z,59.50
2019-02-24T19:50:42.644Z,59.25
2019-02-24T19:53:11.758Z,54.75
2019-02-24T19:55:42.045Z,56.75
2019-02-24T19:58:12.251Z,57.50
2019-02-24T20:00:41.460Z,56.00
2019-02-24T20:03:10.739Z,71.50
2019-02-24T20:05:40.814Z,50.00
2019-02-24T20:08:09.862Z,80.75
2019-02-24T20:10:39.104Z,78.25
2019-02-24T20:13:08.160Z,64.75
2019-02-24T20:15:37.191Z,58.50
2019-02-24T20:18:06.369Z,49.25
2019-02-24T20:20:35.462Z,53.25
2019-02-24T20:23:04.662Z,49.50
2019-02-24T20:25:35.256Z,48.50
2019-02-24T20:28:04.321Z,51.25
2019-02-24T20:30:35.079Z,52.00
2019-02-24T20:33:04.308Z,67.25
2019-02-24T20:35:33.555Z,51.25
2019-02-24T20:38:02.707Z,49.50
2019-02-24T20:40:31.851Z,51.50
2019-02-24T20:43:00.921Z,53.50
2019-02-24T20:45:30.177Z,62.00
2019-02-24T20:47:59.531Z,63.50
2019-02-24T20:50:28.779Z,50.50
2019-02-24T20:52:57.906Z,59.50
2019-02-24T20:55:27.108Z,61.00
2019-02-24T20:57:56.299Z,55.50
2019-02-24T21:00:44.761Z,56.00
2019-02-24T21:03:15.300Z,56.50
2019-02-24T21:05:44.435Z,50.00
2019-02-24T21:08:13.572Z,56.25
2019-02-24T21:10:44.136Z,66.75
2019-02-24T21:13:13.215Z,69.25
2019-02-24T21:15:42.348Z,70.50
2019-02-24T21:18:11.533Z,63.00
2019-02-24T21:20:48.024Z,64.75
2019-02-24T21:23:17.246Z,85.75
2019-02-24T21:25:46.388Z,83.25
2019-02-24T21:28:15.469Z,94.00
2019-02-24T21:30:45.918Z,87.00
2019-02-24T21:33:15.134Z,97.25
2019-02-24T21:35:44.176Z,83.25
2019-02-24T21:38:15.707Z,98.25
2019-02-24T21:40:44.698Z,99.75
2019-02-24T21:43:16.239Z,95.75
2019-02-24T21:45:45.371Z,125.25
2019-02-24T21:48:14.427Z,83.25
2019-02-24T21:50:45.711Z,103.25
2019-02-24T21:53:14.757Z,103.00
2019-02-24T21:55:43.904Z,85.50
2019-02-24T21:58:15.398Z,80.75
2019-02-24T22:00:44.503Z,73.25
2019-02-24T22:03:13.739Z,97.50
2019-02-24T22:05:43.350Z,99.75
2019-02-24T22:08:12.528Z,92.00
2019-02-24T22:10:41.630Z,79.50
2019-02-24T22:13:10.823Z,84.00
2019-02-24T22:15:39.938Z,96.75
2019-02-24T22:18:10.037Z,90.50
2019-02-24T22:20:39.089Z,82.50
2019-02-24T22:23:08.234Z,85.75
2019-02-24T22:25:37.393Z,86.50
2019-02-24T22:28:06.591Z,79.75
2019-02-24T22:30:36.029Z,94.25
2019-02-24T22:33:07.226Z,84.25
2019-02-24T22:35:36.336Z,96.75
2019-02-24T22:38:05.440Z,91.00
2019-02-24T22:40:34.681Z,100.00
2019-02-24T22:43:03.778Z,86.50
2019-02-24T22:45:32.890Z,88.50
2019-02-24T22:48:03.163Z,93.00
2019-02-24T22:50:32.586Z,89.00
2019-02-24T22:53:02.899Z,87.50
2019-02-24T22:55:33.333Z,99.00
2019-02-24T22:58:02.361Z,87.50
2019-02-24T23:00:54.610Z,103.00
2019-02-24T23:03:24.793Z,88.50
2019-02-24T23:05:53.898Z,93.00
2019-02-24T23:08:23.061Z,97.50
2019-02-24T23:10:52.253Z,94.50
2019-02-24T23:13:21.445Z,89.50
2019-02-24T23:15:50.629Z,96.00
2019-02-24T23:18:19.825Z,87.50
2019-02-24T23:20:48.921Z,96.00
2019-02-24T23:23:20.021Z,94.50
2019-02-24T23:25:49.115Z,88.50
2019-02-24T23:28:18.103Z,91.00
2019-02-24T23:30:47.236Z,90.00
2019-02-24T23:33:16.356Z,98.00
2019-02-24T23:35:45.503Z,97.00
2019-02-24T23:38:14.533Z,83.00
2019-02-24T23:40:44.739Z,91.00
2019-02-24T23:43:13.959Z,97.00
2019-02-24T23:45:43.039Z,100.50
2019-02-24T23:48:12.357Z,93.50
2019-02-24T23:50:41.476Z,87.00
2019-02-24T23:53:10.567Z,80.00
2019-02-24T23:55:39.728Z,93.50
2019-02-24T23:58:08.847Z,89.50
